EDHL

Lübeck Blankensee Airport

Lübeck, Germany
METAR EDHL 181750Z 23005KT 9999 BKN009 01/M00 Q1018
Observed Flight Rules
Jan-18 @ 17:50 UTC (3 hours ago) Instrument Flight Rules
Wind Visibility Clouds
230° at 5 knots 10,000+ meters
  • Broken at 900' AGL
Temperatures Readings
Current 1°C / 34°F
Dewpoint 0°C / 32°F
Humidity 93%
Altimeter 30.06" Hg
Pressure 1017.92 hPa
Elevation 16
METAR EDHL 181750Z 23005KT 9999 BKN009 01/M00 Q1018
Observed Flight Rules
Jan-18 @ 17:50 UTC
(3 hours ago)
IFR
Wind Visibility
230° at 5 knots 10,000+ meters
Clouds
  • Broken at 900' AGL
Temperature Dewpoint
1°C / 34°F 0°C / 32°F
Humidity Altimeter Pressure
93% 30.06" Hg 1017.92 hPa